sensor_id;sensor_type;location;lat;lon;timestamp;temperature;humidity
7814;DHT22;3952;48.364;16.022;2023-08-12T00:01:11;16.20;99.90
7814;DHT22;3952;48.364;16.022;2023-08-12T00:03:40;16.00;99.90
7814;DHT22;3952;48.364;16.022;2023-08-12T00:06:07;16.00;99.90
7814;DHT22;3952;48.364;16.022;2023-08-12T00:08:34;15.90;99.90
7814;DHT22;3952;48.364;16.022;2023-08-12T00:11:02;15.80;99.90
7814;DHT22;3952;48.364;16.022;2023-08-12T00:13:29;15.80;99.90
7814;DHT22;3952;48.364;16.022;2023-08-12T00:15:56;15.80;99.90
7814;DHT22;3952;48.364;16.022;2023-08-12T00:18:23;15.70;99.90
7814;DHT22;3952;48.364;16.022;2023-08-12T00:20:52;15.70;99.90
7814;DHT22;3952;48.364;16.022;2023-08-12T00:23:20;15.70;99.90
7814;DHT22;3952;48.364;16.022;2023-08-12T00:25:49;15.70;99.90
7814;DHT22;3952;48.364;16.022;2023-08-12T00:28:16;15.60;99.90
7814;DHT22;3952;48.364;16.022;2023-08-12T00:30:44;15.50;99.90
7814;DHT22;3952;48.364;16.022;2023-08-12T00:33:11;15.50;99.90
7814;DHT22;3952;48.364;16.022;2023-08-12T00:35:38;15.40;99.90
7814;DHT22;3952;48.364;16.022;2023-08-12T00:38:07;15.30;99.90
7814;DHT22;3952;48.364;16.022;2023-08-12T00:40:34;15.40;99.90
7814;DHT22;3952;48.364;16.022;2023-08-12T00:43:01;15.40;99.90
7814;DHT22;3952;48.364;16.022;2023-08-12T00:45:29;15.30;99.90
7814;DHT22;3952;48.364;16.022;2023-08-12T00:47:57;15.30;99.90
7814;DHT22;3952;48.364;16.022;2023-08-12T00:50:25;15.30;99.90
7814;DHT22;3952;48.364;16.022;2023-08-12T00:52:53;15.30;99.90
7814;DHT22;3952;48.364;16.022;2023-08-12T00:55:21;15.20;99.90
7814;DHT22;3952;48.364;16.022;2023-08-12T00:57:49;15.20;99.90
7814;DHT22;3952;48.364;16.022;2023-08-12T01:00:18;15.20;99.90
7814;DHT22;3952;48.364;16.022;2023-08-12T01:02:47;15.20;99.90
7814;DHT22;3952;48.364;16.022;2023-08-12T01:05:15;15.10;99.90
7814;DHT22;3952;48.364;16.022;2023-08-12T01:07:43;15.10;99.90
7814;DHT22;3952;48.364;16.022;2023-08-12T01:10:11;15.10;99.90
7814;DHT22;3952;48.364;16.022;2023-08-12T01:12:47;15.10;99.90
7814;DHT22;3952;48.364;16.022;2023-08-12T01:15:20;15.00;99.90
7814;DHT22;3952;48.364;16.022;2023-08-12T01:17:50;14.90;99.90
7814;DHT22;3952;48.364;16.022;2023-08-12T01:20:20;14.90;99.90
7814;DHT22;3952;48.364;16.022;2023-08-12T01:22:56;14.90;99.90
7814;DHT22;3952;48.364;16.022;2023-08-12T01:25:25;14.90;99.90
7814;DHT22;3952;48.364;16.022;2023-08-12T01:27:52;14.90;99.90
7814;DHT22;3952;48.364;16.022;2023-08-12T01:30:22;14.90;99.90
7814;DHT22;3952;48.364;16.022;2023-08-12T01:32:54;14.90;99.90
7814;DHT22;3952;48.364;16.022;2023-08-12T01:35:26;14.90;99.90
7814;DHT22;3952;48.364;16.022;2023-08-12T01:37:57;14.90;99.90
7814;DHT22;3952;48.364;16.022;2023-08-12T01:40:28;15.00;99.90
7814;DHT22;3952;48.364;16.022;2023-08-12T01:42:56;15.00;99.90
7814;DHT22;3952;48.364;16.022;2023-08-12T01:45:23;15.00;99.90
7814;DHT22;3952;48.364;16.022;2023-08-12T01:47:51;14.90;99.90
7814;DHT22;3952;48.364;16.022;2023-08-12T01:50:18;14.90;99.90
7814;DHT22;3952;48.364;16.022;2023-08-12T01:52:47;14.80;99.90
7814;DHT22;3952;48.364;16.022;2023-08-12T01:55:14;14.70;99.90
7814;DHT22;3952;48.364;16.022;2023-08-12T01:57:43;14.70;99.90
7814;DHT22;3952;48.364;16.022;2023-08-12T02:00:11;14.70;99.90
7814;DHT22;3952;48.364;16.022;2023-08-12T02:02:38;14.80;99.90
7814;DHT22;3952;48.364;16.022;2023-08-12T02:05:06;14.70;99.90
7814;DHT22;3952;48.364;16.022;2023-08-12T02:07:33;14.80;99.90
7814;DHT22;3952;48.364;16.022;2023-08-12T02:10:00;14.70;99.90
7814;DHT22;3952;48.364;16.022;2023-08-12T02:12:28;14.60;99.90
7814;DHT22;3952;48.364;16.022;2023-08-12T02:14:56;14.60;99.90
7814;DHT22;3952;48.364;16.022;2023-08-12T02:17:23;14.60;99.90
7814;DHT22;3952;48.364;16.022;2023-08-12T02:19:51;14.60;99.90
7814;DHT22;3952;48.364;16.022;2023-08-12T02:22:18;14.60;99.90
7814;DHT22;3952;48.364;16.022;2023-08-12T02:24:45;14.50;99.90
7814;DHT22;3952;48.364;16.022;2023-08-12T02:27:12;14.50;99.90
7814;DHT22;3952;48.364;16.022;2023-08-12T02:29:40;14.50;99.90
7814;DHT22;3952;48.364;16.022;2023-08-12T02:32:08;14.50;99.90
7814;DHT22;3952;48.364;16.022;2023-08-12T02:34:35;14.50;99.90
7814;DHT22;3952;48.364;16.022;2023-08-12T02:37:03;14.50;99.90
7814;DHT22;3952;48.364;16.022;2023-08-12T02:39:30;14.50;99.90
7814;DHT22;3952;48.364;16.022;2023-08-12T02:41:57;14.50;99.90
7814;DHT22;3952;48.364;16.022;2023-08-12T02:44:24;14.50;99.90
7814;DHT22;3952;48.364;16.022;2023-08-12T02:46:52;14.50;99.90
7814;DHT22;3952;48.364;16.022;2023-08-12T02:49:20;14.50;99.90
7814;DHT22;3952;48.364;16.022;2023-08-12T02:51:47;14.50;99.90
7814;DHT22;3952;48.364;16.022;2023-08-12T02:54:15;14.50;99.90
7814;DHT22;3952;48.364;16.022;2023-08-12T02:56:43;14.50;99.90
7814;DHT22;3952;48.364;16.022;2023-08-12T02:59:10;14.50;99.90
7814;DHT22;3952;48.364;16.022;2023-08-12T03:01:40;14.40;99.90
7814;DHT22;3952;48.364;16.022;2023-08-12T03:04:07;14.40;99.90
7814;DHT22;3952;48.364;16.022;2023-08-12T03:06:36;14.30;99.90
7814;DHT22;3952;48.364;16.022;2023-08-12T03:09:03;14.20;99.90
7814;DHT22;3952;48.364;16.022;2023-08-12T03:11:30;14.10;99.90
7814;DHT22;3952;48.364;16.022;2023-08-12T03:13:57;14.00;99.90
7814;DHT22;3952;48.364;16.022;2023-08-12T03:16:25;14.00;99.90
7814;DHT22;3952;48.364;16.022;2023-08-12T03:18:52;14.00;99.90
7814;DHT22;3952;48.364;16.022;2023-08-12T03:21:19;13.90;99.90
7814;DHT22;3952;48.364;16.022;2023-08-12T03:23:48;13.90;99.90
7814;DHT22;3952;48.364;16.022;2023-08-12T03:26:15;14.00;99.90
7814;DHT22;3952;48.364;16.022;2023-08-12T03:28:42;14.00;99.90
7814;DHT22;3952;48.364;16.022;2023-08-12T03:31:09;14.00;99.90
7814;DHT22;3952;48.364;16.022;2023-08-12T03:33:37;14.00;99.90
7814;DHT22;3952;48.364;16.022;2023-08-12T03:36:04;13.90;99.90
7814;DHT22;3952;48.364;16.022;2023-08-12T03:38:32;13.90;99.90
7814;DHT22;3952;48.364;16.022;2023-08-12T03:41:02;13.90;99.90
7814;DHT22;3952;48.364;16.022;2023-08-12T03:43:30;13.80;99.90
7814;DHT22;3952;48.364;16.022;2023-08-12T03:45:59;13.80;99.90
7814;DHT22;3952;48.364;16.022;2023-08-12T03:48:26;13.80;99.90
7814;DHT22;3952;48.364;16.022;2023-08-12T03:50:53;13.80;99.90
7814;DHT22;3952;48.364;16.022;2023-08-12T03:53:20;13.80;99.90
7814;DHT22;3952;48.364;16.022;2023-08-12T03:55:48;13.70;99.90
7814;DHT22;3952;48.364;16.022;2023-08-12T03:58:16;13.70;99.90
7814;DHT22;3952;48.364;16.022;2023-08-12T04:00:44;13.70;99.90
7814;DHT22;3952;48.364;16.022;2023-08-12T04:03:11;13.70;99.90
7814;DHT22;3952;48.364;16.022;2023-08-12T04:05:46;13.70;99.90
7814;DHT22;3952;48.364;16.022;2023-08-12T04:08:13;13.70;99.90
7814;DHT22;3952;48.364;16.022;2023-08-12T04:10:43;13.60;99.90
7814;DHT22;3952;48.364;16.022;2023-08-12T04:13:11;13.70;99.90
7814;DHT22;3952;48.364;16.022;2023-08-12T04:15:39;13.60;99.90
7814;DHT22;3952;48.364;16.022;2023-08-12T04:18:06;13.70;99.90
7814;DHT22;3952;48.364;16.022;2023-08-12T04:20:34;13.60;99.90
7814;DHT22;3952;48.364;16.022;2023-08-12T04:23:01;13.60;99.90
7814;DHT22;3952;48.364;16.022;2023-08-12T04:25:29;13.60;99.90
7814;DHT22;3952;48.364;16.022;2023-08-12T04:27:56;13.60;99.90
7814;DHT22;3952;48.364;16.022;2023-08-12T04:30:23;13.60;99.90
7814;DHT22;3952;48.364;16.022;2023-08-12T04:32:53;13.70;99.90
7814;DHT22;3952;48.364;16.022;2023-08-12T04:35:20;13.60;99.90
7814;DHT22;3952;48.364;16.022;2023-08-12T04:37:47;13.70;99.90
7814;DHT22;3952;48.364;16.022;2023-08-12T04:40:15;13.70;99.90
7814;DHT22;3952;48.364;16.022;2023-08-12T04:42:42;13.70;99.90
7814;DHT22;3952;48.364;16.022;2023-08-12T04:45:09;13.60;99.90
7814;DHT22;3952;48.364;16.022;2023-08-12T04:47:37;13.70;99.90
7814;DHT22;3952;48.364;16.022;2023-08-12T04:50:06;13.70;99.90
7814;DHT22;3952;48.364;16.022;2023-08-12T04:52:34;13.70;99.90
7814;DHT22;3952;48.364;16.022;2023-08-12T04:55:01;13.70;99.90
7814;DHT22;3952;48.364;16.022;2023-08-12T04:57:29;13.80;99.90
7814;DHT22;3952;48.364;16.022;2023-08-12T04:59:56;13.80;99.90
7814;DHT22;3952;48.364;16.022;2023-08-12T05:02:23;13.80;99.90
7814;DHT22;3952;48.364;16.022;2023-08-12T05:04:51;13.90;99.90
7814;DHT22;3952;48.364;16.022;2023-08-12T05:07:19;13.90;99.90
7814;DHT22;3952;48.364;16.022;2023-08-12T05:09:47;14.10;99.90
7814;DHT22;3952;48.364;16.022;2023-08-12T05:12:14;14.10;99.90
7814;DHT22;3952;48.364;16.022;2023-08-12T05:14:41;14.10;99.90
7814;DHT22;3952;48.364;16.022;2023-08-12T05:17:09;14.20;99.90
7814;DHT22;3952;48.364;16.022;2023-08-12T05:19:36;14.30;99.90
7814;DHT22;3952;48.364;16.022;2023-08-12T05:22:03;14.30;99.90
7814;DHT22;3952;48.364;16.022;2023-08-12T05:24:32;14.40;99.90
7814;DHT22;3952;48.364;16.022;2023-08-12T05:26:59;14.50;99.90
7814;DHT22;3952;48.364;16.022;2023-08-12T05:29:26;14.50;99.90
7814;DHT22;3952;48.364;16.022;2023-08-12T05:31:54;14.50;99.90
7814;DHT22;3952;48.364;16.022;2023-08-12T05:34:21;14.60;99.90
7814;DHT22;3952;48.364;16.022;2023-08-12T05:36:48;14.70;99.90
7814;DHT22;3952;48.364;16.022;2023-08-12T05:39:15;14.80;99.90
7814;DHT22;3952;48.364;16.022;2023-08-12T05:41:44;14.80;99.90
7814;DHT22;3952;48.364;16.022;2023-08-12T05:44:12;14.90;99.90
7814;DHT22;3952;48.364;16.022;2023-08-12T05:46:39;14.90;99.90
7814;DHT22;3952;48.364;16.022;2023-08-12T05:49:06;15.00;99.90
7814;DHT22;3952;48.364;16.022;2023-08-12T05:51:33;15.10;99.90
7814;DHT22;3952;48.364;16.022;2023-08-12T05:54:00;15.20;99.90
7814;DHT22;3952;48.364;16.022;2023-08-12T05:56:28;15.30;99.90
7814;DHT22;3952;48.364;16.022;2023-08-12T05:58:56;15.30;99.90
7814;DHT22;3952;48.364;16.022;2023-08-12T06:01:23;15.40;99.90
7814;DHT22;3952;48.364;16.022;2023-08-12T06:03:51;15.50;99.90
7814;DHT22;3952;48.364;16.022;2023-08-12T06:06:18;15.60;99.90
7814;DHT22;3952;48.364;16.022;2023-08-12T06:08:45;15.70;99.90
7814;DHT22;3952;48.364;16.022;2023-08-12T06:11:12;15.80;99.90
7814;DHT22;3952;48.364;16.022;2023-08-12T06:13:39;15.90;99.90
7814;DHT22;3952;48.364;16.022;2023-08-12T06:16:08;16.00;99.90
7814;DHT22;3952;48.364;16.022;2023-08-12T06:18:35;16.10;99.90
7814;DHT22;3952;48.364;16.022;2023-08-12T06:21:02;16.20;99.90
7814;DHT22;3952;48.364;16.022;2023-08-12T06:23:30;16.30;99.90
7814;DHT22;3952;48.364;16.022;2023-08-12T06:25:57;16.30;99.90
7814;DHT22;3952;48.364;16.022;2023-08-12T06:28:24;16.40;99.90
7814;DHT22;3952;48.364;16.022;2023-08-12T06:30:51;16.60;99.90
7814;DHT22;3952;48.364;16.022;2023-08-12T06:33:20;16.60;99.90
7814;DHT22;3952;48.364;16.022;2023-08-12T06:35:47;16.80;99.90
7814;DHT22;3952;48.364;16.022;2023-08-12T06:38:14;16.90;99.90
7814;DHT22;3952;48.364;16.022;2023-08-12T06:40:41;17.00;99.90
7814;DHT22;3952;48.364;16.022;2023-08-12T06:43:09;17.10;99.90
7814;DHT22;3952;48.364;16.022;2023-08-12T06:45:36;17.20;99.90
7814;DHT22;3952;48.364;16.022;2023-08-12T06:48:04;17.30;99.90
7814;DHT22;3952;48.364;16.022;2023-08-12T06:50:32;17.50;99.90
7814;DHT22;3952;48.364;16.022;2023-08-12T06:53:00;17.60;99.90
7814;DHT22;3952;48.364;16.022;2023-08-12T06:55:27;17.80;99.90
7814;DHT22;3952;48.364;16.022;2023-08-12T06:57:55;17.90;99.90
7814;DHT22;3952;48.364;16.022;2023-08-12T07:00:22;18.00;99.90
7814;DHT22;3952;48.364;16.022;2023-08-12T07:02:49;18.20;99.90
7814;DHT22;3952;48.364;16.022;2023-08-12T07:05:16;18.40;99.90
7814;DHT22;3952;48.364;16.022;2023-08-12T07:07:45;18.50;99.90
7814;DHT22;3952;48.364;16.022;2023-08-12T07:10:12;18.70;99.90
7814;DHT22;3952;48.364;16.022;2023-08-12T07:12:39;18.80;99.90
7814;DHT22;3952;48.364;16.022;2023-08-12T07:15:07;18.90;99.90
7814;DHT22;3952;48.364;16.022;2023-08-12T07:17:36;19.10;99.90
7814;DHT22;3952;48.364;16.022;2023-08-12T07:20:04;19.20;99.90
7814;DHT22;3952;48.364;16.022;2023-08-12T07:22:32;19.40;99.90
7814;DHT22;3952;48.364;16.022;2023-08-12T07:25:01;19.60;99.90
7814;DHT22;3952;48.364;16.022;2023-08-12T07:27:28;19.70;99.90
7814;DHT22;3952;48.364;16.022;2023-08-12T07:29:56;19.80;99.90
7814;DHT22;3952;48.364;16.022;2023-08-12T07:32:23;20.00;99.90
7814;DHT22;3952;48.364;16.022;2023-08-12T07:34:50;20.10;99.90
7814;DHT22;3952;48.364;16.022;2023-08-12T07:37:17;20.20;99.90
7814;DHT22;3952;48.364;16.022;2023-08-12T07:39:44;20.30;99.90
7814;DHT22;3952;48.364;16.022;2023-08-12T07:42:13;20.50;99.90
7814;DHT22;3952;48.364;16.022;2023-08-12T07:44:40;20.60;99.90
7814;DHT22;3952;48.364;16.022;2023-08-12T07:47:07;20.80;99.90
7814;DHT22;3952;48.364;16.022;2023-08-12T07:49:35;21.00;99.90
7814;DHT22;3952;48.364;16.022;2023-08-12T07:52:02;21.20;99.90
7814;DHT22;3952;48.364;16.022;2023-08-12T07:54:29;21.20;99.90
7814;DHT22;3952;48.364;16.022;2023-08-12T07:56:57;21.30;99.90
7814;DHT22;3952;48.364;16.022;2023-08-12T07:59:25;21.50;99.90
7814;DHT22;3952;48.364;16.022;2023-08-12T08:01:52;21.50;99.90
7814;DHT22;3952;48.364;16.022;2023-08-12T08:04:20;21.60;99.90
7814;DHT22;3952;48.364;16.022;2023-08-12T08:06:47;21.80;99.90
7814;DHT22;3952;48.364;16.022;2023-08-12T08:09:14;22.00;99.90
7814;DHT22;3952;48.364;16.022;2023-08-12T08:11:41;22.20;99.90
7814;DHT22;3952;48.364;16.022;2023-08-12T08:14:08;22.40;99.90
7814;DHT22;3952;48.364;16.022;2023-08-12T08:16:37;22.60;99.90
7814;DHT22;3952;48.364;16.022;2023-08-12T08:19:05;22.80;99.90
7814;DHT22;3952;48.364;16.022;2023-08-12T08:21:35;22.90;99.90
7814;DHT22;3952;48.364;16.022;2023-08-12T08:24:02;23.10;99.90
7814;DHT22;3952;48.364;16.022;2023-08-12T08:26:30;23.20;99.90
7814;DHT22;3952;48.364;16.022;2023-08-12T08:28:57;23.50;99.90
7814;DHT22;3952;48.364;16.022;2023-08-12T08:31:24;23.60;99.90
7814;DHT22;3952;48.364;16.022;2023-08-12T08:33:53;23.60;99.90
7814;DHT22;3952;48.364;16.022;2023-08-12T08:36:20;23.70;99.90
7814;DHT22;3952;48.364;16.022;2023-08-12T08:38:49;23.80;99.90
7814;DHT22;3952;48.364;16.022;2023-08-12T08:41:16;23.90;99.90
7814;DHT22;3952;48.364;16.022;2023-08-12T08:43:44;24.20;99.90
7814;DHT22;3952;48.364;16.022;2023-08-12T08:46:15;24.40;99.90
7814;DHT22;3952;48.364;16.022;2023-08-12T08:48:42;24.50;99.90
7814;DHT22;3952;48.364;16.022;2023-08-12T08:51:12;24.70;99.90
7814;DHT22;3952;48.364;16.022;2023-08-12T08:53:40;24.70;99.90
7814;DHT22;3952;48.364;16.022;2023-08-12T08:56:08;24.90;99.90
7814;DHT22;3952;48.364;16.022;2023-08-12T08:58:38;25.00;99.90
7814;DHT22;3952;48.364;16.022;2023-08-12T09:01:06;25.10;99.90
7814;DHT22;3952;48.364;16.022;2023-08-12T09:03:34;25.20;99.90
7814;DHT22;3952;48.364;16.022;2023-08-12T09:06:03;25.10;99.90
7814;DHT22;3952;48.364;16.022;2023-08-12T09:08:32;25.30;99.90
7814;DHT22;3952;48.364;16.022;2023-08-12T09:11:02;25.40;99.90
7814;DHT22;3952;48.364;16.022;2023-08-12T09:13:29;25.50;99.90
7814;DHT22;3952;48.364;16.022;2023-08-12T09:15:57;25.60;99.90
7814;DHT22;3952;48.364;16.022;2023-08-12T09:18:24;25.60;99.90
7814;DHT22;3952;48.364;16.022;2023-08-12T09:20:53;25.60;99.90
7814;DHT22;3952;48.364;16.022;2023-08-12T09:23:20;25.70;99.90
7814;DHT22;3952;48.364;16.022;2023-08-12T09:25:50;25.90;99.90
7814;DHT22;3952;48.364;16.022;2023-08-12T09:28:17;26.00;99.90
7814;DHT22;3952;48.364;16.022;2023-08-12T09:30:50;26.10;99.90
7814;DHT22;3952;48.364;16.022;2023-08-12T09:33:24;26.20;99.90
7814;DHT22;3952;48.364;16.022;2023-08-12T09:35:51;26.40;99.90
7814;DHT22;3952;48.364;16.022;2023-08-12T09:38:18;26.60;99.90
7814;DHT22;3952;48.364;16.022;2023-08-12T09:40:46;26.70;99.90
7814;DHT22;3952;48.364;16.022;2023-08-12T09:43:16;27.00;99.90
7814;DHT22;3952;48.364;16.022;2023-08-12T09:45:44;27.10;99.90
7814;DHT22;3952;48.364;16.022;2023-08-12T09:48:12;27.20;99.90
7814;DHT22;3952;48.364;16.022;2023-08-12T09:50:40;27.30;99.90
7814;DHT22;3952;48.364;16.022;2023-08-12T09:53:07;27.30;99.90
7814;DHT22;3952;48.364;16.022;2023-08-12T09:55:35;27.50;99.90
7814;DHT22;3952;48.364;16.022;2023-08-12T09:58:06;27.60;99.90
7814;DHT22;3952;48.364;16.022;2023-08-12T10:00:36;27.60;99.90
7814;DHT22;3952;48.364;16.022;2023-08-12T10:03:03;27.60;99.90
7814;DHT22;3952;48.364;16.022;2023-08-12T10:05:32;27.70;99.90
7814;DHT22;3952;48.364;16.022;2023-08-12T10:07:59;27.70;99.90
7814;DHT22;3952;48.364;16.022;2023-08-12T10:10:30;27.70;99.90
7814;DHT22;3952;48.364;16.022;2023-08-12T10:12:58;27.70;99.90
7814;DHT22;3952;48.364;16.022;2023-08-12T10:15:26;27.70;99.90
7814;DHT22;3952;48.364;16.022;2023-08-12T10:17:56;27.70;99.90
7814;DHT22;3952;48.364;16.022;2023-08-12T10:20:24;27.70;99.90
7814;DHT22;3952;48.364;16.022;2023-08-12T10:22:53;27.60;99.90
7814;DHT22;3952;48.364;16.022;2023-08-12T10:25:22;27.60;99.90
7814;DHT22;3952;48.364;16.022;2023-08-12T10:27:51;27.70;99.90
7814;DHT22;3952;48.364;16.022;2023-08-12T10:30:20;27.70;99.90
7814;DHT22;3952;48.364;16.022;2023-08-12T10:32:48;27.80;99.90
7814;DHT22;3952;48.364;16.022;2023-08-12T10:35:16;27.90;99.90
7814;DHT22;3952;48.364;16.022;2023-08-12T10:37:48;27.90;99.90
7814;DHT22;3952;48.364;16.022;2023-08-12T10:40:22;28.00;99.90
7814;DHT22;3952;48.364;16.022;2023-08-12T10:42:50;28.10;99.90
7814;DHT22;3952;48.364;16.022;2023-08-12T10:45:18;28.20;99.90
7814;DHT22;3952;48.364;16.022;2023-08-12T10:47:49;28.20;99.90
7814;DHT22;3952;48.364;16.022;2023-08-12T10:50:21;28.10;99.90
7814;DHT22;3952;48.364;16.022;2023-08-12T10:52:52;28.00;99.90
7814;DHT22;3952;48.364;16.022;2023-08-12T10:55:21;28.00;99.90
7814;DHT22;3952;48.364;16.022;2023-08-12T10:57:49;28.00;99.90
7814;DHT22;3952;48.364;16.022;2023-08-12T11:00:18;28.00;99.90
7814;DHT22;3952;48.364;16.022;2023-08-12T11:02:49;28.10;99.90
7814;DHT22;3952;48.364;16.022;2023-08-12T11:05:20;28.10;99.90
7814;DHT22;3952;48.364;16.022;2023-08-12T11:07:48;28.10;99.90
7814;DHT22;3952;48.364;16.022;2023-08-12T11:10:18;28.20;99.90
7814;DHT22;3952;48.364;16.022;2023-08-12T11:12:54;28.30;99.90
7814;DHT22;3952;48.364;16.022;2023-08-12T11:15:30;28.30;99.90
7814;DHT22;3952;48.364;16.022;2023-08-12T11:17:58;28.30;99.90
7814;DHT22;3952;48.364;16.022;2023-08-12T11:20:28;28.30;99.90
7814;DHT22;3952;48.364;16.022;2023-08-12T11:22:56;28.30;99.90
7814;DHT22;3952;48.364;16.022;2023-08-12T11:25:25;28.40;99.90
7814;DHT22;3952;48.364;16.022;2023-08-12T11:27:52;28.50;99.90
7814;DHT22;3952;48.364;16.022;2023-08-12T11:30:20;28.50;99.90
7814;DHT22;3952;48.364;16.022;2023-08-12T11:32:50;28.50;99.90
7814;DHT22;3952;48.364;16.022;2023-08-12T11:35:18;28.50;99.90
7814;DHT22;3952;48.364;16.022;2023-08-12T11:37:48;28.50;99.90
7814;DHT22;3952;48.364;16.022;2023-08-12T11:40:17;28.40;99.90
7814;DHT22;3952;48.364;16.022;2023-08-12T11:42:45;28.30;99.90
7814;DHT22;3952;48.364;16.022;2023-08-12T11:45:14;28.40;99.90
7814;DHT22;3952;48.364;16.022;2023-08-12T11:47:41;28.40;99.90
7814;DHT22;3952;48.364;16.022;2023-08-12T11:50:11;28.30;99.90
7814;DHT22;3952;48.364;16.022;2023-08-12T11:52:39;28.40;99.90
7814;DHT22;3952;48.364;16.022;2023-08-12T11:55:09;28.30;99.90
7814;DHT22;3952;48.364;16.022;2023-08-12T11:57:36;28.40;99.90
7814;DHT22;3952;48.364;16.022;2023-08-12T12:00:07;28.50;99.90
7814;DHT22;3952;48.364;16.022;2023-08-12T12:02:40;28.50;99.90
7814;DHT22;3952;48.364;16.022;2023-08-12T12:05:09;28.50;99.90
7814;DHT22;3952;48.364;16.022;2023-08-12T12:07:36;28.60;99.90
7814;DHT22;3952;48.364;16.022;2023-08-12T12:10:05;28.50;99.90
7814;DHT22;3952;48.364;16.022;2023-08-12T12:12:34;28.50;99.90
7814;DHT22;3952;48.364;16.022;2023-08-12T12:15:03;28.60;99.90
7814;DHT22;3952;48.364;16.022;2023-08-12T12:17:30;28.70;99.90
7814;DHT22;3952;48.364;16.022;2023-08-12T12:19:59;28.90;99.90
7814;DHT22;3952;48.364;16.022;2023-08-12T12:22:28;28.80;99.90
7814;DHT22;3952;48.364;16.022;2023-08-12T12:24:58;28.90;99.90
7814;DHT22;3952;48.364;16.022;2023-08-12T12:27:26;28.80;99.90
7814;DHT22;3952;48.364;16.022;2023-08-12T12:29:54;28.90;99.90
7814;DHT22;3952;48.364;16.022;2023-08-12T12:32:22;28.90;99.90
7814;DHT22;3952;48.364;16.022;2023-08-12T12:34:49;29.00;99.90
7814;DHT22;3952;48.364;16.022;2023-08-12T12:37:16;28.90;99.90
7814;DHT22;3952;48.364;16.022;2023-08-12T12:39:44;29.00;99.90
7814;DHT22;3952;48.364;16.022;2023-08-12T12:42:11;28.90;99.90
7814;DHT22;3952;48.364;16.022;2023-08-12T12:44:38;29.00;99.90
7814;DHT22;3952;48.364;16.022;2023-08-12T12:47:07;28.90;99.90
7814;DHT22;3952;48.364;16.022;2023-08-12T12:49:36;28.80;99.90
7814;DHT22;3952;48.364;16.022;2023-08-12T12:52:04;28.80;99.90
7814;DHT22;3952;48.364;16.022;2023-08-12T12:54:31;28.80;99.90
7814;DHT22;3952;48.364;16.022;2023-08-12T12:56:58;28.80;99.90
7814;DHT22;3952;48.364;16.022;2023-08-12T12:59:27;28.80;99.90
7814;DHT22;3952;48.364;16.022;2023-08-12T13:01:54;28.80;99.90
7814;DHT22;3952;48.364;16.022;2023-08-12T13:04:22;28.80;99.90
7814;DHT22;3952;48.364;16.022;2023-08-12T13:06:50;28.80;99.90
7814;DHT22;3952;48.364;16.022;2023-08-12T13:09:17;28.80;99.90
7814;DHT22;3952;48.364;16.022;2023-08-12T13:11:44;28.80;99.90
7814;DHT22;3952;48.364;16.022;2023-08-12T13:14:11;28.80;99.90
7814;DHT22;3952;48.364;16.022;2023-08-12T13:16:39;28.80;99.90
7814;DHT22;3952;48.364;16.022;2023-08-12T13:19:06;28.90;99.90
7814;DHT22;3952;48.364;16.022;2023-08-12T13:21:35;28.90;99.90
7814;DHT22;3952;48.364;16.022;2023-08-12T13:24:02;29.00;99.90
7814;DHT22;3952;48.364;16.022;2023-08-12T13:26:30;29.00;99.90
7814;DHT22;3952;48.364;16.022;2023-08-12T13:28:57;29.00;99.90
7814;DHT22;3952;48.364;16.022;2023-08-12T13:31:24;29.00;99.90
7814;DHT22;3952;48.364;16.022;2023-08-12T13:33:52;29.00;99.90
7814;DHT22;3952;48.364;16.022;2023-08-12T13:36:19;29.00;99.90
7814;DHT22;3952;48.364;16.022;2023-08-12T13:38:48;29.10;99.90
7814;DHT22;3952;48.364;16.022;2023-08-12T13:41:15;29.10;99.90
7814;DHT22;3952;48.364;16.022;2023-08-12T13:43:42;29.10;99.70
7814;DHT22;3952;48.364;16.022;2023-08-12T13:46:10;29.10;99.90
7814;DHT22;3952;48.364;16.022;2023-08-12T13:48:37;29.10;99.80
7814;DHT22;3952;48.364;16.022;2023-08-12T13:51:05;29.10;98.70
7814;DHT22;3952;48.364;16.022;2023-08-12T13:53:32;29.00;98.40
7814;DHT22;3952;48.364;16.022;2023-08-12T13:56:01;29.00;99.60
7814;DHT22;3952;48.364;16.022;2023-08-12T13:58:28;29.00;99.90
7814;DHT22;3952;48.364;16.022;2023-08-12T14:00:55;29.00;98.80
7814;DHT22;3952;48.364;16.022;2023-08-12T14:03:23;29.00;99.60
7814;DHT22;3952;48.364;16.022;2023-08-12T14:05:50;29.00;99.40
7814;DHT22;3952;48.364;16.022;2023-08-12T14:08:17;29.00;99.90
7814;DHT22;3952;48.364;16.022;2023-08-12T14:10:45;29.10;99.90
7814;DHT22;3952;48.364;16.022;2023-08-12T14:13:14;29.10;99.20
7814;DHT22;3952;48.364;16.022;2023-08-12T14:15:42;29.20;99.50
7814;DHT22;3952;48.364;16.022;2023-08-12T14:18:09;29.20;99.40
7814;DHT22;3952;48.364;16.022;2023-08-12T14:20:36;29.10;97.70
7814;DHT22;3952;48.364;16.022;2023-08-12T14:23:04;29.00;98.30
7814;DHT22;3952;48.364;16.022;2023-08-12T14:25:31;28.90;98.50
7814;DHT22;3952;48.364;16.022;2023-08-12T14:27:58;29.00;99.50
7814;DHT22;3952;48.364;16.022;2023-08-12T14:30:27;29.00;99.00
7814;DHT22;3952;48.364;16.022;2023-08-12T14:32:54;29.00;98.80
7814;DHT22;3952;48.364;16.022;2023-08-12T14:35:22;28.90;99.00
7814;DHT22;3952;48.364;16.022;2023-08-12T14:37:49;28.90;98.80
7814;DHT22;3952;48.364;16.022;2023-08-12T14:40:16;28.90;99.00
7814;DHT22;3952;48.364;16.022;2023-08-12T14:42:44;28.90;99.30
7814;DHT22;3952;48.364;16.022;2023-08-12T14:45:11;28.90;99.60
7814;DHT22;3952;48.364;16.022;2023-08-12T14:47:39;28.90;99.30
7814;DHT22;3952;48.364;16.022;2023-08-12T14:50:08;28.80;98.90
7814;DHT22;3952;48.364;16.022;2023-08-12T14:52:35;28.80;98.90
7814;DHT22;3952;48.364;16.022;2023-08-12T14:55:03;28.80;99.40
7814;DHT22;3952;48.364;16.022;2023-08-12T14:57:31;28.80;99.50
7814;DHT22;3952;48.364;16.022;2023-08-12T14:59:58;28.70;99.60
7814;DHT22;3952;48.364;16.022;2023-08-12T15:02:25;28.70;99.90
7814;DHT22;3952;48.364;16.022;2023-08-12T15:04:54;28.70;99.50
7814;DHT22;3952;48.364;16.022;2023-08-12T15:07:21;28.70;99.40
7814;DHT22;3952;48.364;16.022;2023-08-12T15:09:48;28.70;99.50
7814;DHT22;3952;48.364;16.022;2023-08-12T15:12:17;28.70;99.50
7814;DHT22;3952;48.364;16.022;2023-08-12T15:14:46;28.70;99.90
7814;DHT22;3952;48.364;16.022;2023-08-12T15:17:13;28.70;99.90
7814;DHT22;3952;48.364;16.022;2023-08-12T15:19:40;28.70;99.80
7814;DHT22;3952;48.364;16.022;2023-08-12T15:22:09;28.70;99.80
7814;DHT22;3952;48.364;16.022;2023-08-12T15:24:36;28.60;99.90
7814;DHT22;3952;48.364;16.022;2023-08-12T15:27:03;28.60;99.80
7814;DHT22;3952;48.364;16.022;2023-08-12T15:29:30;28.60;99.90
7814;DHT22;3952;48.364;16.022;2023-08-12T15:31:58;28.60;99.90
7814;DHT22;3952;48.364;16.022;2023-08-12T15:34:26;28.60;99.50
7814;DHT22;3952;48.364;16.022;2023-08-12T15:36:53;28.50;99.40
7814;DHT22;3952;48.364;16.022;2023-08-12T15:39:22;28.50;99.80
7814;DHT22;3952;48.364;16.022;2023-08-12T15:41:49;28.50;99.90
7814;DHT22;3952;48.364;16.022;2023-08-12T15:44:17;28.40;99.50
7814;DHT22;3952;48.364;16.022;2023-08-12T15:46:44;28.40;99.90
7814;DHT22;3952;48.364;16.022;2023-08-12T15:49:12;28.40;99.90